Time;durP1;ratioP1;P1;durP2;ratioP2;P2;SDS_P1;SDS_P2;PMS_P1;PMS_P2;Temp;Humidity;BMP_temperature;BMP_pressure;BME280_temperature;BME280_humidity;BME280_pressure;Samples;Min_cycle;Max_cycle;Signal;HPM_P1;HPM_P2
2022/10/26 00:01:09;;;;;;;2.00;1.80;;;14.40;79.40;14.60;96607.00;;;;5004588;28;20198;-86
2022/10/26 00:03:38;;;;;;;1.87;1.50;;;14.40;79.40;14.60;96603.00;;;;5009743;28;20674;-86
2022/10/26 00:06:10;;;;;;;1.97;1.60;;;14.40;79.40;14.70;96595.00;;;;5011851;28;20256;-86
2022/10/26 00:08:38;;;;;;;2.03;1.50;;;14.40;79.30;14.70;96581.00;;;;5012034;28;20294;-86
2022/10/26 00:11:06;;;;;;;2.80;2.33;;;14.50;79.40;14.70;96581.00;;;;5007239;28;20290;-86
2022/10/26 00:13:34;;;;;;;3.00;1.93;;;14.50;79.60;14.70;96589.00;;;;5011258;28;20202;-86
2022/10/26 00:16:07;;;;;;;1.93;1.60;;;14.50;79.60;14.80;96601.00;;;;5012240;28;20253;-86
2022/10/26 00:18:34;;;;;;;1.70;1.60;;;14.50;79.70;14.80;96591.00;;;;5012864;28;20272;-86
2022/10/26 00:21:03;;;;;;;1.67;1.57;;;14.60;79.80;14.80;96596.00;;;;5016439;28;20202;-86
2022/10/26 00:23:32;;;;;;;2.10;1.97;;;14.60;79.80;14.90;96600.00;;;;5013369;28;20206;-86
2022/10/26 00:25:59;;;;;;;1.80;1.70;;;14.60;79.90;14.90;96595.00;;;;5015163;28;20308;-86
2022/10/26 00:28:27;;;;;;;1.90;1.80;;;14.60;80.00;14.90;96595.00;;;;5014732;28;20221;-86
2022/10/26 00:30:54;;;;;;;2.57;1.83;;;14.70;80.00;14.90;96604.00;;;;5015214;28;20238;-86
2022/10/26 00:33:21;;;;;;;2.00;1.77;;;14.70;80.00;15.00;96610.00;;;;5016408;28;20241;-85
2022/10/26 00:35:53;;;;;;;2.20;2.00;;;14.70;80.10;15.00;96611.00;;;;5020010;28;20301;-86
2022/10/26 00:38:20;;;;;;;3.80;1.60;;;14.70;80.20;15.00;96603.00;;;;5009710;28;20225;-85
2022/10/26 00:40:49;;;;;;;1.70;1.60;;;14.80;80.30;15.10;96596.00;;;;5014623;28;20194;-85
2022/10/26 00:43:36;;;;;;;2.10;1.90;;;14.80;80.30;15.10;96588.00;;;;5017704;28;20240;-86
2022/10/26 00:46:12;;;;;;;2.30;1.73;;;14.80;80.30;15.10;96589.00;;;;5009400;28;20262;-85
2022/10/26 00:48:45;;;;;;;3.37;2.03;;;14.80;81.10;15.10;96587.00;;;;5013934;28;20202;-86
2022/10/26 00:51:23;;;;;;;2.40;1.90;;;14.90;80.50;15.20;96586.00;;;;5009650;28;20218;-85
2022/10/26 00:53:52;;;;;;;1.93;1.70;;;14.90;81.20;15.20;96599.00;;;;5014718;28;20663;-85
2022/10/26 00:56:21;;;;;;;2.03;1.83;;;14.90;80.50;15.20;96590.00;;;;5004262;28;20230;-85
2022/10/26 00:58:49;;;;;;;1.87;1.53;;;15.00;80.70;15.20;96591.00;;;;5016010;28;20205;-86
2022/10/26 01:01:16;;;;;;;2.50;2.17;;;15.00;80.60;15.30;96584.00;;;;5013301;28;20202;-85
2022/10/26 01:03:44;;;;;;;2.20;2.00;;;15.00;80.60;15.30;96568.00;;;;5016666;28;20198;-85
2022/10/26 01:06:13;;;;;;;2.30;1.90;;;15.00;80.70;15.30;96568.00;;;;5014462;28;20224;-85
2022/10/26 01:08:43;;;;;;;2.80;1.90;;;15.00;80.70;15.40;96565.00;;;;5014315;28;20256;-85
2022/10/26 01:11:12;;;;;;;3.10;1.93;;;15.10;80.80;15.40;96558.00;;;;5030205;28;20202;-86
2022/10/26 01:13:45;;;;;;;1.90;1.80;;;15.10;80.70;15.40;96549.00;;;;5040062;28;20197;-85
2022/10/26 01:16:36;;;;;;;2.10;2.00;;;15.00;80.60;15.40;96552.00;;;;5020985;28;20276;-85
2022/10/26 01:19:58;;;;;;;2.87;2.20;;;15.20;80.70;15.40;96540.00;;;;5019952;28;20888;-86
2022/10/26 01:22:32;;;;;;;2.50;2.03;;;15.20;80.70;15.50;96540.00;;;;5011120;28;20198;-85
2022/10/26 01:25:13;;;;;;;3.27;2.40;;;15.20;80.70;15.50;96543.00;;;;5014779;28;20260;-86
2022/10/26 01:27:43;;;;;;;2.40;2.07;;;15.20;80.70;15.50;96546.00;;;;5013734;28;20249;-86
2022/10/26 01:30:31;;;;;;;3.00;2.40;;;15.30;80.80;15.50;96556.00;;;;5010958;28;20281;-85
2022/10/26 01:33:24;;;;;;;4.47;2.30;;;15.30;80.80;15.60;96568.00;;;;5007921;28;20212;-86
2022/10/26 01:36:06;;;;;;;2.87;2.33;;;15.30;80.80;15.60;96574.00;;;;5008440;28;20218;-85
2022/10/26 01:38:44;;;;;;;2.53;2.27;;;15.30;80.80;15.60;96571.00;;;;5011958;28;20213;-86
2022/10/26 01:41:21;;;;;;;2.03;1.83;;;15.40;81.00;15.70;96583.00;;;;5016584;28;20280;-85
2022/10/26 01:43:56;;;;;;;2.30;2.10;;;15.40;81.00;15.70;96576.00;;;;5018051;28;20616;-87
2022/10/26 01:46:28;;;;;;;2.50;2.30;;;15.40;81.00;15.70;96578.00;;;;5012387;28;20227;-86
2022/10/26 01:49:01;;;;;;;3.00;2.20;;;15.40;80.90;15.70;96578.00;;;;5011870;28;20216;-85
2022/10/26 01:51:31;;;;;;;2.93;2.30;;;15.40;80.80;15.70;96581.00;;;;5013250;28;20277;-85
2022/10/26 01:53:59;;;;;;;2.90;2.40;;;15.50;80.90;15.80;96581.00;;;;5013181;28;20190;-86
2022/10/26 01:56:31;;;;;;;2.33;2.13;;;15.50;81.00;15.80;96580.00;;;;5012779;28;20194;-86
2022/10/26 01:59:35;;;;;;;2.17;2.00;;;15.50;81.80;15.80;96578.00;;;;5013534;28;20288;-86
2022/10/26 02:02:43;;;;;;;2.90;2.70;;;15.50;81.20;15.80;96561.00;;;;5003477;28;20578;-86
2022/10/26 02:05:41;;;;;;;4.17;2.13;;;15.60;80.90;15.80;96559.00;;;;5011472;28;20218;-86
2022/10/26 02:08:28;;;;;;;3.73;1.87;;;15.60;80.90;15.80;96567.00;;;;5016551;28;20297;-86
2022/10/26 02:11:10;;;;;;;2.37;2.17;;;15.60;81.00;15.80;96555.00;;;;4998049;28;20210;-86
2022/10/26 02:13:46;;;;;;;2.33;2.00;;;15.60;80.90;15.80;96566.00;;;;5012135;28;20659;-85
2022/10/26 02:16:24;;;;;;;2.87;2.07;;;15.60;80.80;15.80;96572.00;;;;5010435;28;20256;-86
2022/10/26 02:19:02;;;;;;;4.10;2.47;;;15.60;80.80;15.80;96575.00;;;;5013427;28;20289;-86
2022/10/26 02:21:37;;;;;;;2.83;2.30;;;15.60;80.80;15.80;96580.00;;;;5012472;28;20222;-87
2022/10/26 02:24:09;;;;;;;2.90;2.60;;;15.60;80.70;15.80;96575.00;;;;5009230;28;20591;-87
2022/10/26 02:26:39;;;;;;;5.67;2.97;;;15.60;80.70;15.80;96571.00;;;;5012950;28;20274;-87
2022/10/26 02:29:13;;;;;;;3.60;2.30;;;15.60;80.70;15.80;96576.00;;;;5013452;28;20229;-87
2022/10/26 02:31:43;;;;;;;2.10;1.90;;;15.60;80.70;15.80;96574.00;;;;5012731;28;20225;-86
2022/10/26 02:34:18;;;;;;;2.97;2.43;;;15.60;80.70;15.80;96592.00;;;;5012229;28;20278;-86
2022/10/26 02:36:49;;;;;;;2.80;2.20;;;15.60;80.70;15.80;96597.00;;;;5010067;28;20297;-86
2022/10/26 02:39:19;;;;;;;2.70;2.23;;;15.60;80.70;15.80;96589.00;;;;5013083;28;20605;-86
2022/10/26 02:41:48;;;;;;;2.90;2.30;;;15.60;80.80;15.80;96583.00;;;;5007370;28;20191;-86
2022/10/26 02:44:24;;;;;;;3.43;2.20;;;15.60;80.80;15.80;96582.00;;;;5011252;28;20218;-86
2022/10/26 02:46:53;;;;;;;3.60;2.70;;;15.60;80.80;15.80;96577.00;;;;5011810;28;20280;-86
2022/10/26 02:49:22;;;;;;;2.87;2.67;;;15.60;80.80;15.80;96561.00;;;;5012259;28;20892;-86
2022/10/26 02:51:56;;;;;;;1.73;1.63;;;15.60;80.90;15.90;96549.00;;;;5012591;28;20281;-86
2022/10/26 02:54:33;;;;;;;2.20;1.97;;;15.60;80.90;15.90;96563.00;;;;5011883;28;20217;-86
2022/10/26 02:57:05;;;;;;;2.10;2.00;;;15.60;80.80;15.90;96572.00;;;;5010058;28;20921;-86
2022/10/26 02:59:38;;;;;;;1.90;1.80;;;15.60;80.80;15.90;96562.00;;;;5012165;28;20321;-84
2022/10/26 03:02:05;;;;;;;2.47;2.27;;;15.60;80.90;15.90;96557.00;;;;5012472;28;20683;-86
2022/10/26 03:04:35;;;;;;;1.83;1.73;;;15.70;81.10;15.90;96559.00;;;;5012117;28;20652;-87
2022/10/26 03:07:02;;;;;;;3.60;2.33;;;15.70;81.00;15.90;96563.00;;;;5015974;28;20280;-86
2022/10/26 03:09:30;;;;;;;2.00;1.80;;;15.60;80.90;15.90;96562.00;;;;5013117;28;20703;-86
2022/10/26 03:11:57;;;;;;;2.33;2.13;;;15.70;81.00;15.90;96580.00;;;;5013298;28;20623;-85
2022/10/26 03:14:26;;;;;;;2.17;1.97;;;15.70;81.00;15.90;96577.00;;;;5012766;28;20588;-85
2022/10/26 03:16:53;;;;;;;2.07;1.97;;;15.60;80.90;15.90;96573.00;;;;5005728;28;20228;-85
2022/10/26 03:19:20;;;;;;;2.43;2.23;;;15.70;81.00;15.90;96578.00;;;;5013243;28;20260;-86
2022/10/26 03:21:48;;;;;;;1.90;1.80;;;15.70;81.00;15.90;96562.00;;;;5012814;28;20206;-85
2022/10/26 03:24:16;;;;;;;2.50;2.30;;;15.70;80.90;16.00;96576.00;;;;5011661;28;20228;-86
2022/10/26 03:26:43;;;;;;;3.83;2.23;;;15.70;80.90;16.00;96564.00;;;;5011717;28;20285;-86
2022/10/26 03:29:10;;;;;;;3.63;2.03;;;15.70;80.90;16.00;96560.00;;;;5013030;28;20657;-86
2022/10/26 03:31:37;;;;;;;2.33;2.13;;;15.70;80.90;16.00;96583.00;;;;5011581;28;20194;-86
2022/10/26 03:34:04;;;;;;;2.27;1.93;;;15.70;80.90;15.90;96576.00;;;;5017532;28;20280;-86
2022/10/26 03:36:31;;;;;;;2.20;2.00;;;15.70;80.90;16.00;96575.00;;;;5011210;28;20206;-86
2022/10/26 03:39:00;;;;;;;2.30;2.10;;;15.70;81.00;16.00;96582.00;;;;5005241;28;20220;-86
2022/10/26 03:41:27;;;;;;;2.20;1.97;;;15.70;80.90;16.00;96555.00;;;;5009015;28;20220;-86
2022/10/26 03:43:54;;;;;;;3.50;2.47;;;15.70;80.90;16.00;96559.00;;;;5012045;28;20198;-86
2022/10/26 03:46:21;;;;;;;4.13;2.13;;;15.70;80.80;16.00;96558.00;;;;5011891;28;20285;-85
2022/10/26 03:48:48;;;;;;;2.70;2.10;;;15.70;80.80;16.00;96555.00;;;;5012525;28;20230;-86
2022/10/26 03:51:16;;;;;;;2.50;2.13;;;15.70;80.90;16.00;96542.00;;;;5011344;28;20237;-86
2022/10/26 03:53:43;;;;;;;2.10;2.00;;;15.70;80.80;16.00;96537.00;;;;5011898;28;20204;-86
2022/10/26 03:56:11;;;;;;;2.40;2.20;;;15.80;80.80;16.00;96539.00;;;;5010595;28;20218;-86
2022/10/26 03:58:38;;;;;;;2.20;1.77;;;15.70;80.80;16.00;96536.00;;;;5014420;28;20248;-86
2022/10/26 04:01:05;;;;;;;1.80;1.70;;;15.80;80.80;16.00;96544.00;;;;5002233;28;20208;-87
2022/10/26 04:03:32;;;;;;;3.57;2.33;;;15.80;80.80;16.00;96545.00;;;;5015595;28;20206;-86
2022/10/26 04:06:01;;;;;;;3.50;2.33;;;15.80;80.80;16.00;96551.00;;;;5015080;28;20288;-86
2022/10/26 04:08:28;;;;;;;1.80;1.70;;;15.80;80.80;16.00;96560.00;;;;5015849;28;20305;-86
2022/10/26 04:10:55;;;;;;;2.30;2.13;;;15.80;80.80;16.00;96565.00;;;;5015970;28;20226;-86
2022/10/26 04:13:24;;;;;;;2.90;2.60;;;15.70;80.80;16.00;96582.00;;;;5015101;28;20194;-86
2022/10/26 04:15:51;;;;;;;2.47;1.83;;;15.70;80.80;16.00;96567.00;;;;5011700;28;20300;-86
2022/10/26 04:18:18;;;;;;;2.17;1.97;;;15.70;80.90;16.00;96569.00;;;;5023644;28;20677;-86
2022/10/26 04:20:45;;;;;;;3.23;2.10;;;15.80;81.00;16.00;96568.00;;;;5020262;28;20301;-86
2022/10/26 04:23:15;;;;;;;2.50;2.30;;;15.90;81.00;16.00;96582.00;;;;5009185;28;20285;-86
2022/10/26 04:25:44;;;;;;;1.93;1.77;;;15.80;80.90;16.00;96587.00;;;;5019800;28;20241;-86
2022/10/26 04:28:13;;;;;;;2.13;1.90;;;15.80;80.90;16.10;96595.00;;;;5026870;28;20212;-86
2022/10/26 04:30:41;;;;;;;2.10;1.90;;;15.80;81.00;16.10;96597.00;;;;5015555;28;20198;-86
2022/10/26 04:33:09;;;;;;;2.47;1.90;;;15.80;81.10;16.10;96585.00;;;;5015278;28;20292;-86
2022/10/26 04:35:36;;;;;;;4.33;2.10;;;15.80;81.10;16.10;96578.00;;;;5017140;28;20220;-86
2022/10/26 04:38:06;;;;;;;2.00;1.90;;;15.80;82.00;16.10;96576.00;;;;5015810;28;20206;-86
2022/10/26 04:40:34;;;;;;;2.57;2.03;;;15.80;81.20;16.10;96583.00;;;;5015045;28;20208;-86
2022/10/26 04:43:01;;;;;;;2.50;1.77;;;15.80;81.30;16.10;96599.00;;;;5014838;28;20234;-86
2022/10/26 04:45:29;;;;;;;2.93;1.90;;;15.90;81.40;16.10;96597.00;;;;5035633;22;20370;-85
2022/10/26 04:48:03;;;;;;;3.03;1.87;;;15.90;82.20;16.10;96595.00;;;;5045347;28;20192;-85
2022/10/26 04:50:31;;;;;;;2.27;1.80;;;15.90;81.60;16.10;96593.00;;;;5057855;22;20756;-83
2022/10/26 04:52:59;;;;;;;2.10;1.77;;;15.90;81.50;16.10;96587.00;;;;5027700;28;20245;-83
2022/10/26 04:55:26;;;;;;;1.73;1.63;;;15.90;81.40;16.20;96583.00;;;;5013149;28;20288;-83
2022/10/26 04:57:54;;;;;;;2.13;2.03;;;15.90;81.40;16.20;96582.00;;;;5022094;28;20256;-82
2022/10/26 05:00:21;;;;;;;2.20;1.73;;;15.90;81.40;16.20;96571.00;;;;5021699;28;20640;-84
2022/10/26 05:02:48;;;;;;;1.93;1.83;;;15.90;81.40;16.20;96589.00;;;;5016070;28;20241;-84
2022/10/26 05:05:17;;;;;;;2.13;1.97;;;15.90;81.50;16.20;96593.00;;;;5023891;28;20614;-87
2022/10/26 05:07:44;;;;;;;2.50;1.97;;;15.90;81.50;16.20;96592.00;;;;5010842;28;20230;-86
2022/10/26 05:10:11;;;;;;;2.03;1.80;;;15.90;81.40;16.20;96592.00;;;;5019512;28;20249;-85
2022/10/26 05:12:41;;;;;;;2.63;2.10;;;15.90;81.40;16.20;96600.00;;;;5021481;28;20311;-85
2022/10/26 05:15:13;;;;;;;1.87;1.77;;;15.90;81.40;16.20;96593.00;;;;5016957;28;20892;-84
2022/10/26 05:17:40;;;;;;;1.83;1.73;;;15.90;81.30;16.20;96612.00;;;;5012375;28;20621;-84
2022/10/26 05:20:12;;;;;;;1.83;1.73;;;15.90;81.40;16.20;96639.00;;;;5024119;28;20205;-84
2022/10/26 05:22:43;;;;;;;1.83;1.70;;;15.90;81.50;16.20;96676.00;;;;5015550;28;20233;-84
2022/10/26 05:25:10;;;;;;;2.63;2.00;;;16.00;81.50;16.30;96716.00;;;;5015461;28;20287;-84
2022/10/26 05:27:43;;;;;;;2.63;2.10;;;16.00;81.50;16.30;96747.00;;;;5027809;28;20198;-84
2022/10/26 05:30:15;;;;;;;2.17;1.97;;;16.00;81.50;16.30;96732.00;;;;5012516;28;20316;-85
2022/10/26 05:32:55;;;;;;;1.97;1.73;;;16.00;81.40;16.30;96716.00;;;;5013904;28;20218;-86
2022/10/26 05:35:24;;;;;;;4.87;2.67;;;16.00;81.60;16.20;96723.00;;;;5011805;28;20202;-84
2022/10/26 05:37:53;;;;;;;3.20;2.10;;;16.00;81.50;16.20;96721.00;;;;5026216;28;20754;-85
2022/10/26 05:40:21;;;;;;;2.30;2.10;;;16.00;81.70;16.30;96722.00;;;;5011769;28;20264;-84
2022/10/26 05:42:49;;;;;;;2.27;2.13;;;16.00;81.90;16.30;96729.00;;;;5014430;28;20222;-84
2022/10/26 05:45:17;;;;;;;2.67;2.47;;;16.00;82.00;16.30;96722.00;;;;5007670;28;20200;-83
2022/10/26 05:47:46;;;;;;;2.43;2.23;;;16.00;82.20;16.40;96726.00;;;;5010602;28;20194;-84
2022/10/26 05:50:14;;;;;;;2.43;2.23;;;16.00;82.30;16.40;96732.00;;;;5021267;28;20311;-83
2022/10/26 05:52:42;;;;;;;2.33;2.00;;;16.00;82.20;16.40;96728.00;;;;5025744;28;20253;-86
2022/10/26 05:55:14;;;;;;;3.50;1.73;;;16.00;82.30;16.40;96728.00;;;;5022336;28;20201;-83
2022/10/26 05:57:43;;;;;;;2.17;1.80;;;16.00;82.40;16.40;96733.00;;;;5017514;28;20205;-83
2022/10/26 06:00:19;;;;;;;2.30;2.10;;;16.00;82.40;16.40;96731.00;;;;5023850;28;20202;-83
2022/10/26 06:03:08;;;;;;;1.83;1.73;;;16.00;82.50;16.40;96716.00;;;;5009996;28;20267;-84
2022/10/26 06:05:51;;;;;;;2.20;2.10;;;16.00;82.50;16.40;96735.00;;;;5013792;28;20197;-84
2022/10/26 06:08:26;;;;;;;1.97;1.87;;;16.00;82.60;16.40;96726.00;;;;5014103;28;20316;-83
2022/10/26 06:11:01;;;;;;;1.97;1.83;;;16.00;82.60;16.40;96739.00;;;;5008403;28;20212;-84
2022/10/26 06:13:32;;;;;;;2.53;1.97;;;16.00;82.70;16.40;96718.00;;;;5026874;28;20224;-81
2022/10/26 06:16:22;;;;;;;2.23;2.13;;;16.00;82.80;16.40;96721.00;;;;5002992;28;20214;-81
2022/10/26 06:19:04;;;;;;;2.23;2.03;;;16.00;82.90;16.40;96710.00;;;;5006510;28;20197;-81
2022/10/26 06:22:14;;;;;;;4.63;2.53;;;16.00;82.90;16.40;96705.00;;;;5030786;28;20205;-81
2022/10/26 06:24:57;;;;;;;2.40;2.00;;;16.00;82.90;16.40;96727.00;;;;5001597;28;20229;-81
2022/10/26 06:27:44;;;;;;;2.13;1.93;;;16.00;82.80;16.40;96725.00;;;;5028553;28;20193;-81
2022/10/26 06:30:15;;;;;;;2.47;2.27;;;16.10;82.70;16.40;96733.00;;;;5023777;28;20256;-81
2022/10/26 06:32:55;;;;;;;6.10;2.83;;;16.00;82.70;16.40;96742.00;;;;5022862;28;20287;-81
2022/10/26 06:35:39;;;;;;;2.70;2.50;;;16.10;83.00;16.40;96734.00;;;;5023467;28;20205;-81
2022/10/26 06:38:16;;;;;;;2.80;2.50;;;16.00;82.90;16.40;96726.00;;;;5008054;28;20194;-81
2022/10/26 06:40:52;;;;;;;2.70;2.50;;;16.00;82.90;16.40;96735.00;;;;5012494;28;20333;-81
2022/10/26 06:43:27;;;;;;;2.90;2.60;;;16.00;82.90;16.40;96730.00;;;;5010207;28;20291;-81
2022/10/26 06:46:08;;;;;;;3.43;3.20;;;16.00;83.00;16.40;96731.00;;;;5013198;28;20677;-81
2022/10/26 06:48:56;;;;;;;3.13;2.83;;;16.00;83.10;16.40;96740.00;;;;5021286;28;20215;-81
2022/10/26 06:51:28;;;;;;;3.00;2.80;;;16.10;83.40;16.40;96727.00;;;;5016855;28;20261;-81
2022/10/26 06:54:08;;;;;;;3.00;2.80;;;16.10;83.30;16.50;96729.00;;;;5012255;28;20245;-81
2022/10/26 06:56:39;;;;;;;2.77;2.50;;;16.10;83.50;16.50;96714.00;;;;5019504;28;20688;-80
2022/10/26 06:59:35;;;;;;;3.73;2.13;;;16.10;83.50;16.50;96718.00;;;;5012614;28;20197;-83
2022/10/26 07:02:02;;;;;;;2.53;1.90;;;16.10;83.60;16.50;96722.00;;;;5017417;28;20247;-83
2022/10/26 07:04:29;;;;;;;2.93;2.53;;;16.10;83.50;16.60;96730.00;;;;5020731;28;20213;-83
2022/10/26 07:06:59;;;;;;;2.67;2.47;;;16.10;83.60;16.60;96727.00;;;;5029177;28;20280;-84
2022/10/26 07:09:34;;;;;;;2.80;2.10;;;16.20;83.60;16.60;96723.00;;;;5019286;28;20217;-83
2022/10/26 07:12:04;;;;;;;2.40;2.20;;;16.20;83.60;16.60;96725.00;;;;5017093;28;20208;-83
2022/10/26 07:14:38;;;;;;;2.67;2.43;;;16.20;83.70;16.60;96727.00;;;;5017805;28;20639;-83
2022/10/26 07:17:11;;;;;;;2.70;2.50;;;16.20;83.60;16.70;96735.00;;;;5012168;28;20289;-83
2022/10/26 07:19:39;;;;;;;3.37;2.23;;;16.30;83.80;16.70;96732.00;;;;5013421;28;20213;-83
2022/10/26 07:22:09;;;;;;;2.73;2.27;;;16.30;83.80;16.70;96740.00;;;;5014906;28;20721;-83
2022/10/26 07:24:36;;;;;;;3.00;2.07;;;16.30;83.70;16.70;96741.00;;;;5023058;28;20224;-84
2022/10/26 07:27:03;;;;;;;3.07;2.20;;;16.40;83.70;16.80;96747.00;;;;5015864;28;20209;-83
2022/10/26 07:29:38;;;;;;;2.83;2.33;;;16.30;83.80;16.80;96751.00;;;;5022404;28;20274;-84
2022/10/26 07:32:11;;;;;;;3.27;2.60;;;16.40;83.90;16.80;96750.00;;;;5022698;28;20204;-84
2022/10/26 07:34:44;;;;;;;3.60;2.37;;;16.40;84.00;16.90;96751.00;;;;5016147;28;20218;-84
2022/10/26 07:37:19;;;;;;;4.00;2.60;;;16.40;84.00;16.90;96744.00;;;;5019117;28;20212;-84
2022/10/26 07:39:55;;;;;;;5.13;2.80;;;16.50;84.00;16.90;96753.00;;;;5028870;28;20198;-84
2022/10/26 07:42:25;;;;;;;3.10;2.13;;;16.50;84.70;17.00;96759.00;;;;5027268;28;20639;-84
2022/10/26 07:44:58;;;;;;;2.60;2.40;;;16.60;84.10;17.00;96758.00;;;;5014763;28;20198;-84
2022/10/26 07:47:28;;;;;;;3.90;2.43;;;16.60;84.10;17.10;96762.00;;;;5019226;28;20229;-84
2022/10/26 07:49:58;;;;;;;2.47;2.27;;;16.60;84.00;17.10;96757.00;;;;5028204;28;20275;-84
2022/10/26 07:52:29;;;;;;;2.30;2.10;;;16.60;83.90;17.20;96754.00;;;;5028340;28;20766;-84
2022/10/26 07:54:57;;;;;;;3.60;2.30;;;16.70;84.10;17.20;96759.00;;;;5013313;28;20190;-84
2022/10/26 07:57:51;;;;;;;2.23;2.13;;;16.70;84.10;17.30;96763.00;;;;5020355;28;20198;-84
2022/10/26 08:00:28;;;;;;;2.07;1.87;;;16.80;84.30;17.30;96757.00;;;;5016929;28;20201;-84
2022/10/26 08:02:58;;;;;;;2.43;2.23;;;16.80;84.40;17.40;96764.00;;;;5016248;28;20624;-84
2022/10/26 08:05:25;;;;;;;3.40;2.00;;;16.90;84.50;17.50;96754.00;;;;5020636;28;20225;-84
2022/10/26 08:07:52;;;;;;;2.30;2.10;;;17.00;84.80;17.60;96769.00;;;;5019518;28;20220;-83
2022/10/26 08:10:19;;;;;;;2.13;1.90;;;17.00;84.90;17.70;96763.00;;;;5023135;28;20252;-84
2022/10/26 08:12:47;;;;;;;2.50;2.30;;;17.10;85.20;17.70;96767.00;;;;5032274;28;20556;-83
2022/10/26 08:15:14;;;;;;;2.43;1.93;;;17.20;85.30;17.80;96757.00;;;;5016795;28;20298;-84
2022/10/26 08:17:43;;;;;;;2.43;1.77;;;17.20;85.20;17.90;96741.00;;;;5022890;28;20202;-85
2022/10/26 08:20:12;;;;;;;1.70;1.60;;;17.30;85.00;17.90;96743.00;;;;5019948;28;20205;-84
2022/10/26 08:22:39;;;;;;;2.90;1.77;;;17.30;84.80;18.00;96747.00;;;;5016559;28;20317;-85
2022/10/26 08:25:06;;;;;;;2.67;1.90;;;17.40;84.50;18.00;96753.00;;;;5013422;28;20213;-84
2022/10/26 08:27:34;;;;;;;2.73;2.27;;;17.40;84.40;18.10;96752.00;;;;5017334;28;20256;-84
2022/10/26 08:30:01;;;;;;;2.60;2.07;;;17.50;84.50;18.10;96756.00;;;;5018854;28;20632;-83
2022/10/26 08:32:34;;;;;;;2.23;1.90;;;17.60;84.60;18.20;96757.00;;;;5014922;28;20276;-84
2022/10/26 08:35:03;;;;;;;1.90;1.80;;;17.60;84.70;18.30;96769.00;;;;5011886;28;20206;-83
2022/10/26 08:37:32;;;;;;;3.10;1.90;;;17.70;84.70;18.30;96764.00;;;;5016390;28;20197;-84
2022/10/26 08:40:00;;;;;;;2.10;1.90;;;17.70;84.70;18.40;96761.00;;;;5017485;28;20621;-84
2022/10/26 08:42:43;;;;;;;1.97;1.77;;;17.80;84.70;18.50;96768.00;;;;5019710;28;20205;-83
2022/10/26 08:45:23;;;;;;;2.70;1.97;;;17.90;84.90;18.50;96770.00;;;;5012603;28;20685;-84
2022/10/26 08:48:01;;;;;;;1.63;1.53;;;17.90;84.80;18.60;96774.00;;;;5025848;28;20235;-84
2022/10/26 08:50:38;;;;;;;1.93;1.70;;;18.00;84.70;18.60;96774.00;;;;5018218;28;20214;-85
2022/10/26 08:53:20;;;;;;;1.47;1.37;;;18.00;84.60;18.70;96772.00;;;;5012998;28;20225;-84
2022/10/26 08:56:02;;;;;;;2.80;1.80;;;18.10;84.60;18.80;96767.00;;;;5013766;28;20847;-84
2022/10/26 08:58:40;;;;;;;3.53;2.07;;;18.10;84.60;18.80;96773.00;;;;5016711;28;20557;-84
2022/10/26 09:01:09;;;;;;;1.80;1.70;;;18.20;84.50;18.90;96774.00;;;;5017318;28;20336;-84
2022/10/26 09:03:45;;;;;;;2.50;2.00;;;18.30;84.50;19.00;96770.00;;;;5021158;28;20276;-84
2022/10/26 09:06:29;;;;;;;2.23;1.90;;;18.30;84.40;19.00;96778.00;;;;5017589;28;20198;-85
2022/10/26 09:09:07;;;;;;;1.63;1.53;;;18.40;83.80;19.10;96779.00;;;;5015407;28;20595;-85
2022/10/26 09:12:02;;;;;;;1.73;1.57;;;18.40;83.90;19.20;96787.00;;;;5015284;28;20267;-84
2022/10/26 09:14:56;;;;;;;2.23;1.60;;;18.50;84.40;19.30;96787.00;;;;5014158;28;20214;-84
2022/10/26 09:17:40;;;;;;;3.53;1.97;;;18.60;84.80;19.40;96784.00;;;;5018957;28;20201;-85
2022/10/26 09:20:45;;;;;;;1.33;1.23;;;18.70;85.00;19.60;96784.00;;;;5018935;28;20221;-84
2022/10/26 09:23:35;;;;;;;1.40;1.30;;;18.80;85.30;19.80;96770.00;;;;5014633;28;20703;-85
2022/10/26 09:26:13;;;;;;;1.40;1.30;;;19.00;85.70;20.00;96785.00;;;;5017343;28;20300;-85
2022/10/26 09:28:48;;;;;;;2.93;1.87;;;19.20;85.60;20.20;96783.00;;;;5013166;28;20272;-84
2022/10/26 09:31:23;;;;;;;2.97;1.50;;;19.40;86.10;20.40;96788.00;;;;5016894;28;20717;-85
2022/10/26 09:34:10;;;;;;;1.07;0.97;;;19.60;86.70;20.60;96794.00;;;;5025736;28;20254;-85
2022/10/26 09:36:45;;;;;;;1.50;1.07;;;19.80;86.80;20.70;96787.00;;;;5011043;28;20276;-85
2022/10/26 09:39:30;;;;;;;1.23;1.00;;;20.00;86.50;20.80;96791.00;;;;5021674;28;20297;-85
2022/10/26 09:42:05;;;;;;;1.43;0.80;;;20.20;85.40;20.90;96802.00;;;;5020078;28;20204;-85
2022/10/26 09:44:57;;;;;;;0.70;0.70;;;20.30;84.70;20.90;96790.00;;;;5018476;28;20243;-85
2022/10/26 09:47:47;;;;;;;2.07;1.00;;;20.40;84.00;21.00;96800.00;;;;5019002;28;20655;-84
2022/10/26 09:50:25;;;;;;;1.70;1.00;;;20.50;82.90;21.00;96806.00;;;;5013549;28;20233;-84
2022/10/26 09:52:58;;;;;;;1.13;1.00;;;20.50;82.60;21.10;96802.00;;;;5011767;28;20300;-85
2022/10/26 09:55:41;;;;;;;2.00;0.90;;;20.60;82.50;21.10;96810.00;;;;5018621;28;20294;-84
2022/10/26 09:58:28;;;;;;;1.00;0.90;;;20.60;82.10;21.10;96809.00;;;;5016673;28;20202;-85
2022/10/26 10:01:01;;;;;;;1.60;1.00;;;20.70;82.20;21.20;96815.00;;;;5016935;28;20198;-85
2022/10/26 10:03:33;;;;;;;0.67;0.67;;;20.70;82.30;21.20;96819.00;;;;5013085;28;20229;-85
2022/10/26 10:06:20;;;;;;;0.77;0.77;;;20.60;82.20;21.20;96821.00;;;;5011663;28;20198;-85
2022/10/26 10:09:09;;;;;;;1.00;0.90;;;20.70;82.00;21.20;96818.00;;;;5014165;28;20196;-85
2022/10/26 10:11:48;;;;;;;0.70;0.70;;;20.70;81.80;21.30;96815.00;;;;5014750;28;20225;-85
2022/10/26 10:14:17;;;;;;;0.80;0.80;;;20.70;80.80;21.30;96819.00;;;;5015880;28;20229;-85
2022/10/26 10:17:01;;;;;;;1.03;0.93;;;20.70;81.20;21.30;96820.00;;;;5014595;28;20193;-86
2022/10/26 10:19:32;;;;;;;1.33;0.90;;;20.70;81.30;21.30;96827.00;;;;5010587;28;20237;-85
2022/10/26 10:22:14;;;;;;;1.67;0.77;;;20.70;81.20;21.30;96826.00;;;;5024796;28;20221;-85
2022/10/26 10:24:55;;;;;;;2.50;1.00;;;20.70;81.10;21.30;96833.00;;;;5023949;28;20225;-85
2022/10/26 10:27:32;;;;;;;1.20;0.90;;;20.70;81.00;21.20;96832.00;;;;5033057;28;20194;-84
2022/10/26 10:30:21;;;;;;;1.17;1.07;;;20.70;80.70;21.20;96832.00;;;;4998679;28;20208;-84
2022/10/26 10:33:11;;;;;;;1.23;1.10;;;20.70;80.70;21.20;96836.00;;;;5014460;28;20222;-85
2022/10/26 10:35:50;;;;;;;1.40;1.30;;;20.70;80.10;21.20;96839.00;;;;5016810;28;20201;-85
2022/10/26 10:38:21;;;;;;;2.07;1.10;;;20.70;79.60;21.20;96833.00;;;;5021394;28;20287;-84
2022/10/26 10:40:54;;;;;;;2.13;0.97;;;20.70;79.80;21.20;96838.00;;;;5009458;28;20290;-85
2022/10/26 10:43:24;;;;;;;1.43;0.90;;;20.70;79.80;21.20;96844.00;;;;5024777;28;20249;-85
2022/10/26 10:45:58;;;;;;;1.83;0.93;;;20.70;80.00;21.20;96836.00;;;;5024334;28;20287;-85
2022/10/26 10:48:29;;;;;;;0.87;0.73;;;20.70;80.00;21.30;96841.00;;;;5019260;28;20233;-84
2022/10/26 10:51:01;;;;;;;1.60;1.13;;;20.70;80.30;21.30;96837.00;;;;5013592;28;20214;-82
2022/10/26 10:53:39;;;;;;;1.23;1.10;;;20.70;80.70;21.40;96852.00;;;;5013554;28;20279;-83
2022/10/26 10:56:28;;;;;;;1.53;1.10;;;20.70;80.80;21.40;96855.00;;;;5016426;28;20188;-82
2022/10/26 10:59:15;;;;;;;1.00;0.73;;;20.70;80.80;21.50;96854.00;;;;5048594;23;21732;-86
2022/10/26 11:01:50;;;;;;;0.83;0.53;;;20.80;80.50;21.50;96851.00;;;;5032821;28;20201;-86
2022/10/26 11:04:50;;;;;;;2.80;0.90;;;20.80;80.50;21.50;96853.00;;;;5032607;28;20219;-86
2022/10/26 11:07:21;;;;;;;0.90;0.90;;;20.90;79.70;21.60;96858.00;;;;5031776;28;20224;-86
2022/10/26 11:09:52;;;;;;;2.90;1.10;;;20.90;80.30;21.70;96863.00;;;;5013037;28;20264;-86
2022/10/26 11:12:28;;;;;;;1.03;0.97;;;20.90;80.20;21.70;96864.00;;;;5012989;28;20260;-86
2022/10/26 11:15:06;;;;;;;1.13;0.83;;;21.00;79.90;21.80;96858.00;;;;5012696;28;20192;-86
2022/10/26 11:17:50;;;;;;;1.23;0.70;;;21.00;79.70;21.80;96858.00;;;;5012813;28;20224;-87
2022/10/26 11:20:23;;;;;;;0.80;0.80;;;21.10;79.90;21.90;96859.00;;;;5012774;28;20646;-86
2022/10/26 11:23:05;;;;;;;1.47;0.80;;;21.20;79.70;21.90;96863.00;;;;5021209;28;20311;-86
2022/10/26 11:25:40;;;;;;;2.10;0.97;;;21.20;78.70;22.00;96864.00;;;;5012332;28;20286;-86